createdAt,value
2023-01-04T00:01:24.195Z,98397.69
2023-01-04T00:03:52.350Z,98394.38
2023-01-04T00:06:20.717Z,98391.72
2023-01-04T00:08:48.806Z,98402.94
2023-01-04T00:11:19.531Z,98408.88
2023-01-04T00:13:52.672Z,98416.66
2023-01-04T00:16:22.968Z,98413.94
2023-01-04T00:18:52.039Z,98431.06
2023-01-04T00:21:25.385Z,98430.31
2023-01-04T00:23:58.871Z,98434.63
2023-01-04T00:26:31.680Z,98424.16
2023-01-04T00:29:02.331Z,98446.44
2023-01-04T00:31:30.748Z,98454.19
2023-01-04T00:34:01.155Z,98446.81
2023-01-04T00:36:31.648Z,98449.13
2023-01-04T00:39:08.177Z,98453.84
2023-01-04T00:41:58.608Z,98460.56
2023-01-04T00:44:27.843Z,98463.69
2023-01-04T00:46:55.818Z,98483.25
2023-01-04T00:49:23.567Z,98514.56
2023-01-04T00:51:51.630Z,98522.38
2023-01-04T00:54:29.370Z,98526.31
2023-01-04T00:56:58.561Z,98543.09
2023-01-04T00:59:28.775Z,98560.16
2023-01-04T01:01:56.960Z,98593.31
2023-01-04T01:04:25.564Z,98584.28
2023-01-04T01:06:53.576Z,98590.81
2023-01-04T01:09:23.171Z,98595.19
2023-01-04T01:11:52.643Z,98610.19
2023-01-04T01:14:23.380Z,98619.25
2023-01-04T01:16:57.253Z,98618.66
2023-01-04T01:19:29.952Z,98638.63
2023-01-04T01:21:58.459Z,98649.22
2023-01-04T01:24:26.917Z,98656.56
2023-01-04T01:26:55.744Z,98658.53
2023-01-04T01:29:24.066Z,98673.66
2023-01-04T01:31:51.775Z,98674.88
2023-01-04T01:34:19.467Z,98674.38
2023-01-04T01:36:46.906Z,98678.66
2023-01-04T01:39:14.419Z,98694.56
2023-01-04T01:41:42.294Z,98705.91
2023-01-04T01:44:12.736Z,98716.97
2023-01-04T01:46:52.568Z,98714.44
2023-01-04T01:49:23.168Z,98725.25
2023-01-04T01:51:52.235Z,98731.97
2023-01-04T01:54:28.934Z,98742.78
2023-01-04T01:57:00.042Z,98756.47
2023-01-04T01:59:30.069Z,98752.28
2023-01-04T02:01:57.547Z,98760.56
2023-01-04T02:04:25.134Z,98767.28
2023-01-04T02:06:56.942Z,98781.22
2023-01-04T02:09:24.692Z,98803.63
2023-01-04T02:11:52.179Z,98806.16
2023-01-04T02:14:27.140Z,98811.44
2023-01-04T02:17:16.091Z,98831.50
2023-01-04T02:19:49.181Z,98835.06
2023-01-04T02:22:38.081Z,98846.06
2023-01-04T02:25:11.327Z,98860.59
2023-01-04T02:27:53.189Z,98858.06
2023-01-04T02:30:44.701Z,98863.50
2023-01-04T02:33:30.923Z,98875.59
2023-01-04T02:36:10.161Z,98880.06
2023-01-04T02:38:49.755Z,98890.78
2023-01-04T02:41:34.311Z,98893.38
2023-01-04T02:44:32.309Z,98910.41
2023-01-04T02:47:15.649Z,98900.09
2023-01-04T02:50:04.985Z,98916.53
2023-01-04T02:52:33.875Z,98919.69
2023-01-04T02:55:06.194Z,98926.56
2023-01-04T02:57:58.572Z,98925.19
2023-01-04T03:01:01.299Z,98937.63
2023-01-04T03:04:05.790Z,98944.88
2023-01-04T03:07:06.865Z,98956.81
2023-01-04T03:09:40.220Z,98962.66
2023-01-04T03:12:32.232Z,98981.38
2023-01-04T03:15:09.896Z,98979.66
2023-01-04T03:17:46.979Z,98983.34
2023-01-04T03:20:17.263Z,98987.34
2023-01-04T03:23:12.173Z,98992.19
2023-01-04T03:26:06.466Z,99004.44
2023-01-04T03:28:55.717Z,99009.41
2023-01-04T03:31:51.714Z,99021.34
2023-01-04T03:34:38.400Z,99028.66
2023-01-04T03:37:25.813Z,99037.41
2023-01-04T03:40:32.712Z,99043.59
2023-01-04T03:43:39.135Z,99036.63
2023-01-04T03:46:46.051Z,99044.22
2023-01-04T03:49:16.241Z,99067.50
2023-01-04T03:51:46.839Z,99075.78
2023-01-04T03:54:29.301Z,99070.25
2023-01-04T03:56:58.173Z,99072.06
2023-01-04T03:59:25.964Z,99088.78
2023-01-04T04:01:53.800Z,99091.22
2023-01-04T04:04:40.037Z,99088.38
2023-01-04T04:07:26.262Z,99092.97
2023-01-04T04:09:53.699Z,99102.97
2023-01-04T04:12:24.216Z,99106.56
2023-01-04T04:14:51.635Z,99112.31
2023-01-04T04:17:19.067Z,99109.47
2023-01-04T04:19:46.467Z,99125.59
2023-01-04T04:22:13.920Z,99132.28
2023-01-04T04:24:43.523Z,99127.16
2023-01-04T04:27:10.957Z,99134.25
2023-01-04T04:29:38.400Z,99143.97
2023-01-04T04:32:05.945Z,99151.16
2023-01-04T04:34:33.486Z,99160.41
2023-01-04T04:37:00.920Z,99160.59
2023-01-04T04:39:28.412Z,99164.59
2023-01-04T04:41:55.834Z,99171.31
2023-01-04T04:44:23.627Z,99178.91
2023-01-04T04:46:51.151Z,99175.41
2023-01-04T04:49:18.703Z,99184.53
2023-01-04T04:51:47.360Z,99189.59
2023-01-04T04:54:17.811Z,99191.88
2023-01-04T04:56:45.385Z,99208.69
2023-01-04T04:59:12.929Z,99205.00
2023-01-04T05:01:40.652Z,99209.38
2023-01-04T05:04:08.218Z,99206.66
2023-01-04T05:06:35.738Z,99203.34
2023-01-04T05:09:03.282Z,99211.22
2023-01-04T05:11:49.475Z,99228.44
2023-01-04T05:14:16.947Z,99240.31
2023-01-04T05:16:45.494Z,99239.78
2023-01-04T05:19:13.032Z,99249.44
2023-01-04T05:21:40.984Z,99248.34
2023-01-04T05:24:10.781Z,99251.25
2023-01-04T05:26:38.999Z,99255.09
2023-01-04T05:29:06.554Z,99266.38
2023-01-04T05:31:34.046Z,99274.72
2023-01-04T05:34:01.519Z,99279.56
2023-01-04T05:36:29.007Z,99274.31
2023-01-04T05:38:56.409Z,99287.28
2023-01-04T05:41:42.382Z,99305.38
2023-01-04T05:44:09.897Z,99301.56
2023-01-04T05:46:37.435Z,99314.59
2023-01-04T05:49:04.892Z,99313.97
2023-01-04T05:51:32.510Z,99316.34
2023-01-04T05:53:59.944Z,99329.22
2023-01-04T05:56:27.370Z,99342.03
2023-01-04T05:58:54.855Z,99343.06
2023-01-04T06:01:24.816Z,99338.09
2023-01-04T06:03:52.347Z,99341.63
2023-01-04T06:06:19.884Z,99341.81
2023-01-04T06:08:48.007Z,99338.56
2023-01-04T06:11:15.462Z,99340.72
2023-01-04T06:13:42.907Z,99345.34
2023-01-04T06:16:10.453Z,99347.44
2023-01-04T06:18:37.870Z,99345.56
2023-01-04T06:21:05.344Z,99350.50
2023-01-04T06:23:32.818Z,99358.50
2023-01-04T06:26:00.267Z,99365.22
2023-01-04T06:28:27.699Z,99379.81
2023-01-04T06:30:55.264Z,99369.06
2023-01-04T06:33:22.791Z,99386.16
2023-01-04T06:35:55.042Z,99384.75
2023-01-04T06:38:23.023Z,99388.94
2023-01-04T06:40:50.551Z,99409.66
2023-01-04T06:43:18.213Z,99412.75
2023-01-04T06:45:45.902Z,99400.13
2023-01-04T06:48:18.335Z,99405.72
2023-01-04T06:50:46.189Z,99413.53
2023-01-04T06:53:13.723Z,99419.44
2023-01-04T06:55:41.148Z,99426.94
2023-01-04T06:58:08.555Z,99423.38
2023-01-04T07:00:36.009Z,99430.19
2023-01-04T07:03:15.080Z,99438.31
2023-01-04T07:05:44.387Z,99436.47
2023-01-04T07:08:12.805Z,99429.31
2023-01-04T07:10:41.788Z,99448.44
2023-01-04T07:13:09.972Z,99454.88
2023-01-04T07:15:40.671Z,99459.19
2023-01-04T07:18:10.549Z,99452.50
2023-01-04T07:20:38.894Z,99462.34
2023-01-04T07:23:08.201Z,99461.16
2023-01-04T07:25:36.210Z,99470.78
2023-01-04T07:28:03.765Z,99474.44
2023-01-04T07:30:31.215Z,99474.66
2023-01-04T07:32:58.721Z,99488.50
2023-01-04T07:35:28.765Z,99502.88
2023-01-04T07:37:58.905Z,99495.31
2023-01-04T07:40:28.064Z,99505.19
2023-01-04T07:42:57.722Z,99503.72
2023-01-04T07:45:26.383Z,99503.06
2023-01-04T07:47:54.223Z,99502.16
2023-01-04T07:50:21.776Z,99511.63
2023-01-04T07:52:49.265Z,99505.94
2023-01-04T07:55:16.843Z,99520.78
2023-01-04T07:57:44.277Z,99519.34
2023-01-04T08:00:12.522Z,99516.81
2023-01-04T08:02:40.653Z,99519.56
2023-01-04T08:05:08.533Z,99523.19
2023-01-04T08:07:36.068Z,99523.66
2023-01-04T08:10:03.781Z,99530.25
2023-01-04T08:12:31.372Z,99532.00
2023-01-04T08:15:01.337Z,99532.00
2023-01-04T08:17:30.555Z,99532.78
2023-01-04T08:19:58.055Z,99545.50
2023-01-04T08:22:25.469Z,99539.47
2023-01-04T08:24:52.938Z,99554.63
2023-01-04T08:27:20.442Z,99547.34
2023-01-04T08:29:48.001Z,99543.38
2023-01-04T08:32:15.430Z,99554.69
2023-01-04T08:34:43.019Z,99554.34
2023-01-04T08:37:10.518Z,99552.25
2023-01-04T08:39:38.225Z,99554.09
2023-01-04T08:42:18.722Z,99564.47
2023-01-04T08:44:52.859Z,99561.28
2023-01-04T08:47:23.094Z,99565.56
2023-01-04T08:49:50.505Z,99545.91
2023-01-04T08:52:17.985Z,99569.38
2023-01-04T08:54:45.477Z,99566.63
2023-01-04T08:57:13.047Z,99561.88
2023-01-04T08:59:40.494Z,99564.81
2023-01-04T09:02:27.969Z,99571.50
2023-01-04T09:04:59.751Z,99577.28
2023-01-04T09:07:31.470Z,99574.50
2023-01-04T09:10:00.995Z,99579.34
2023-01-04T09:12:29.190Z,99571.88
2023-01-04T09:14:56.638Z,99561.91
2023-01-04T09:17:24.500Z,99558.59
2023-01-04T09:19:51.956Z,99566.75
2023-01-04T09:22:19.486Z,99556.34
2023-01-04T09:24:47.014Z,99565.53
2023-01-04T09:27:14.509Z,99559.81
2023-01-04T09:29:41.957Z,99566.84
2023-01-04T09:32:16.072Z,99575.44
2023-01-04T09:34:44.951Z,99574.78
2023-01-04T09:37:12.433Z,99577.84
2023-01-04T09:39:39.943Z,99574.41
2023-01-04T09:42:38.324Z,99574.94
2023-01-04T09:45:29.870Z,99569.31
2023-01-04T09:48:08.241Z,99565.81
2023-01-04T09:50:51.846Z,99568.25
2023-01-04T09:53:28.758Z,99567.91
2023-01-04T09:56:36.145Z,99572.66
2023-01-04T09:59:09.500Z,99571.34
2023-01-04T10:01:46.481Z,99565.28
2023-01-04T10:04:22.960Z,99565.84
2023-01-04T10:06:50.582Z,99556.19
2023-01-04T10:09:18.074Z,99557.72
2023-01-04T10:12:06.785Z,99561.13
2023-01-04T10:14:55.334Z,99556.75
2023-01-04T10:23:51.683Z,99554.97
2023-01-04T10:26:30.443Z,99551.13
2023-01-04T10:29:17.742Z,99554.66
2023-01-04T10:31:58.521Z,99553.34
2023-01-04T10:34:42.392Z,99547.19
2023-01-04T10:37:16.238Z,99554.66
2023-01-04T10:39:45.394Z,99550.91
2023-01-04T10:42:20.509Z,99549.47
2023-01-04T10:45:13.980Z,99556.75
2023-01-04T10:48:16.594Z,99552.25
2023-01-04T10:51:07.082Z,99543.78
2023-01-04T10:53:47.081Z,99542.22
2023-01-04T10:56:39.825Z,99537.50
2023-01-04T10:59:21.171Z,99540.25
2023-01-04T11:01:55.820Z,99528.81
2023-01-04T11:04:43.120Z,99538.59
2023-01-04T11:07:20.610Z,99531.78
2023-01-04T11:09:50.999Z,99532.25
2023-01-04T11:12:21.578Z,99538.69
2023-01-04T11:14:51.413Z,99536.16
2023-01-04T11:17:21.025Z,99538.91
2023-01-04T11:19:48.810Z,99540.00
2023-01-04T11:22:21.903Z,99548.22
2023-01-04T11:25:33.051Z,99548.13
2023-01-04T11:28:16.414Z,99554.25
2023-01-04T11:30:56.692Z,99552.59
2023-01-04T11:33:25.066Z,99563.78
2023-01-04T11:35:56.586Z,99559.25
2023-01-04T11:38:27.776Z,99559.59
2023-01-04T11:40:57.993Z,99565.06
2023-01-04T11:43:28.141Z,99566.59
2023-01-04T11:45:59.217Z,99554.50
2023-01-04T11:48:33.937Z,99555.47
2023-01-04T11:51:01.731Z,99560.72
2023-01-04T11:53:36.257Z,99571.28
2023-01-04T11:56:15.684Z,99568.66
2023-01-04T11:58:45.270Z,99568.59
2023-01-04T12:01:24.806Z,99582.97
2023-01-04T12:03:52.430Z,99576.22
2023-01-04T12:06:22.995Z,99581.00
2023-01-04T12:08:50.738Z,99579.75
2023-01-04T12:11:52.197Z,99575.75
2023-01-04T12:14:34.989Z,99576.69
2023-01-04T12:17:26.338Z,99577.16
2023-01-04T12:19:56.267Z,99580.41
2023-01-04T12:22:38.161Z,99569.25
2023-01-04T12:25:20.414Z,99568.09
2023-01-04T12:27:49.630Z,99565.59
2023-01-04T12:30:45.763Z,99566.31
2023-01-04T12:33:34.102Z,99573.22
2023-01-04T12:36:16.626Z,99563.84
2023-01-04T12:38:53.093Z,99561.91
2023-01-04T12:42:00.552Z,99564.00
2023-01-04T12:44:37.434Z,99564.66
2023-01-04T12:47:34.917Z,99569.81
2023-01-04T12:50:16.820Z,99567.53
2023-01-04T12:53:10.840Z,99566.31
2023-01-04T12:55:39.164Z,99565.53
2023-01-04T12:59:27.207Z,99570.63
2023-01-04T13:02:44.217Z,99561.19
2023-01-04T13:08:11.687Z,99559.72
2023-01-04T13:10:53.688Z,99562.91
2023-01-04T13:13:46.533Z,99576.91
2023-01-04T13:16:28.695Z,99557.78
2023-01-04T13:19:02.121Z,99581.16
2023-01-04T13:21:42.261Z,99579.03
2023-01-04T13:24:32.222Z,99572.47
2023-01-04T13:27:14.753Z,99564.56
2023-01-04T13:29:42.633Z,99570.34
2023-01-04T13:32:13.034Z,99564.56
2023-01-04T13:35:14.434Z,99563.34
2023-01-04T13:37:47.144Z,99564.41
2023-01-04T13:40:17.465Z,99557.91
2023-01-04T13:43:09.961Z,99556.16
2023-01-04T13:45:53.865Z,99567.00
2023-01-04T13:48:24.095Z,99565.25
2023-01-04T13:51:17.143Z,99564.69
2023-01-04T13:54:21.216Z,99556.41
2023-01-04T13:56:55.213Z,99557.47
2023-01-04T13:59:23.456Z,99547.97
2023-01-04T14:01:51.404Z,99556.53
2023-01-04T14:04:28.175Z,99555.53
2023-01-04T14:06:59.321Z,99555.84
2023-01-04T14:09:33.515Z,99545.25
2023-01-04T14:12:12.830Z,99555.97
2023-01-04T14:14:58.814Z,99552.69
2023-01-04T14:17:53.025Z,99552.47
2023-01-04T14:20:20.424Z,99553.22
2023-01-04T14:22:47.830Z,99550.81
2023-01-04T14:25:33.825Z,99551.00
2023-01-04T14:28:30.712Z,99547.06
2023-01-04T14:31:01.517Z,99526.75
2023-01-04T14:33:45.735Z,99529.53
2023-01-04T14:36:22.512Z,99517.34
2023-01-04T14:39:06.444Z,99517.31
2023-01-04T14:41:52.178Z,99519.94
2023-01-04T14:44:21.831Z,99507.72
2023-01-04T14:46:52.709Z,99503.34
2023-01-04T14:49:22.240Z,99506.75
2023-01-04T14:52:01.691Z,99506.44
2023-01-04T14:54:30.322Z,99504.22
2023-01-04T14:56:58.818Z,99497.41
2023-01-04T14:59:26.937Z,99487.22
2023-01-04T15:01:56.614Z,99493.03
2023-01-04T15:04:24.802Z,99491.50
2023-01-04T15:06:56.466Z,99486.91
2023-01-04T15:09:24.256Z,99491.19
2023-01-04T15:11:51.902Z,99476.59
2023-01-04T15:14:19.812Z,99476.59
2023-01-04T15:16:47.780Z,99470.13
2023-01-04T15:19:15.760Z,99478.88
2023-01-04T15:21:43.267Z,99477.47
2023-01-04T15:24:11.123Z,99465.75
2023-01-04T15:26:39.830Z,99461.56
2023-01-04T15:29:08.720Z,99450.69
2023-01-04T15:31:39.805Z,99439.16
2023-01-04T15:34:10.396Z,99441.28
2023-01-04T15:36:41.009Z,99440.06
2023-01-04T15:39:12.805Z,99436.47
2023-01-04T15:41:58.730Z,99434.91
2023-01-04T15:44:26.748Z,99434.91
2023-01-04T15:46:54.850Z,99428.00
2023-01-04T15:49:22.393Z,99417.59
2023-01-04T15:51:49.872Z,99415.50
2023-01-04T15:54:17.662Z,99411.88
2023-01-04T15:56:45.147Z,99406.47
2023-01-04T15:59:13.857Z,99403.97
2023-01-04T16:01:42.180Z,99401.53
2023-01-04T16:04:11.668Z,99396.72
2023-01-04T16:06:39.980Z,99397.81
2023-01-04T16:09:08.414Z,99391.44
2023-01-04T16:11:35.927Z,99394.41
2023-01-04T16:14:03.464Z,99380.00
2023-01-04T16:16:32.905Z,99386.06
2023-01-04T16:19:02.071Z,99381.03
2023-01-04T16:21:29.655Z,99376.31
2023-01-04T16:24:07.205Z,99367.38
2023-01-04T16:26:40.523Z,99369.19
2023-01-04T16:29:08.676Z,99369.19
2023-01-04T16:31:37.638Z,99346.88
2023-01-04T16:34:05.934Z,99352.81
2023-01-04T16:36:33.359Z,99342.16
2023-01-04T16:39:01.786Z,99331.41
2023-01-04T16:41:29.603Z,99328.22
2023-01-04T16:43:59.546Z,99323.50
2023-01-04T16:46:29.508Z,99322.63
2023-01-04T16:48:59.177Z,99317.34
2023-01-04T16:51:28.321Z,99315.94
2023-01-04T16:53:56.140Z,99313.84
2023-01-04T16:56:25.230Z,99317.88
2023-01-04T16:58:52.918Z,99310.53
2023-01-04T17:01:23.522Z,99306.16
2023-01-04T17:03:56.197Z,99308.56
2023-01-04T17:06:26.292Z,99310.19
2023-01-04T17:08:55.383Z,99297.91
2023-01-04T17:14:16.534Z,99283.09
2023-01-04T17:16:44.203Z,99280.81
2023-01-04T17:19:11.741Z,99275.53
2023-01-04T17:21:39.160Z,99268.84
2023-01-04T17:24:07.026Z,99263.13
2023-01-04T17:26:34.510Z,99254.25
2023-01-04T17:29:02.437Z,99259.41
2023-01-04T17:31:33.372Z,99250.19
2023-01-04T17:34:01.089Z,99235.13
2023-01-04T17:36:29.084Z,99237.66
2023-01-04T17:38:59.432Z,99243.50
2023-01-04T17:41:29.699Z,99236.69
2023-01-04T17:44:00.565Z,99227.91
2023-01-04T17:46:34.107Z,99223.53
2023-01-04T17:51:53.083Z,99214.84
2023-01-04T17:54:21.367Z,99202.56
2023-01-04T17:56:48.856Z,99198.84
2023-01-04T17:59:16.452Z,99198.97
2023-01-04T18:01:44.014Z,99200.91
2023-01-04T18:04:11.590Z,99198.81
2023-01-04T18:06:39.716Z,99194.75
2023-01-04T18:09:08.231Z,99187.75
2023-01-04T18:11:36.607Z,99192.22
2023-01-04T18:14:07.990Z,99192.56
2023-01-04T18:16:56.807Z,99186.75
2023-01-04T18:19:30.118Z,99188.94
2023-01-04T18:21:58.290Z,99188.53
2023-01-04T18:24:43.832Z,99184.56
2023-01-04T18:27:22.690Z,99181.25
2023-01-04T18:29:52.048Z,99174.00
2023-01-04T18:32:20.339Z,99182.75
2023-01-04T18:34:47.841Z,99170.72
2023-01-04T18:37:16.253Z,99167.22
2023-01-04T18:39:44.059Z,99169.25
2023-01-04T18:42:11.703Z,99169.47
2023-01-04T18:44:46.066Z,99166.09
2023-01-04T18:47:16.225Z,99159.91
2023-01-04T18:49:43.728Z,99156.94
2023-01-04T18:52:11.465Z,99159.38
2023-01-04T18:54:38.931Z,99147.81
2023-01-04T18:57:06.553Z,99146.28
2023-01-04T18:59:34.371Z,99154.28
2023-01-04T19:02:03.059Z,99155.91
2023-01-04T19:04:33.090Z,99150.41
2023-01-04T19:07:01.338Z,99149.53
2023-01-04T19:09:29.186Z,99139.16
2023-01-04T19:11:56.657Z,99138.41
2023-01-04T19:14:24.200Z,99138.91
2023-01-04T19:16:53.388Z,99135.91
2023-01-04T19:19:21.179Z,99133.16
2023-01-04T19:21:48.861Z,99133.38
2023-01-04T19:24:16.304Z,99127.16
2023-01-04T19:26:43.875Z,99130.63
2023-01-04T19:29:11.612Z,99126.59
2023-01-04T19:31:39.116Z,99120.94
2023-01-04T19:34:08.913Z,99097.81
2023-01-04T19:36:36.855Z,99111.06
2023-01-04T19:39:07.860Z,99101.69
2023-01-04T19:41:37.633Z,99099.09
2023-01-04T19:44:08.209Z,99103.25
2023-01-04T19:46:38.659Z,99106.56
2023-01-04T19:49:12.686Z,99109.88
2023-01-04T19:51:44.017Z,99104.22
2023-01-04T19:54:15.746Z,99095.78
2023-01-04T19:56:45.091Z,99093.06
2023-01-04T19:59:12.581Z,99098.22
2023-01-04T20:01:40.117Z,99098.22
2023-01-04T20:04:07.575Z,99097.56
2023-01-04T20:06:35.097Z,99092.38
2023-01-04T20:09:02.573Z,99088.00
2023-01-04T20:11:30.049Z,99089.47
2023-01-04T20:13:57.742Z,99075.44
2023-01-04T20:16:25.440Z,99085.16
2023-01-04T20:18:57.366Z,99080.34
2023-01-04T20:21:24.909Z,99075.28
2023-01-04T20:23:52.445Z,99083.13
2023-01-04T20:26:19.978Z,99081.72
2023-01-04T20:28:48.726Z,99078.59
2023-01-04T20:31:17.907Z,99084.63
2023-01-04T20:33:46.302Z,99070.25
2023-01-04T20:36:16.886Z,99076.38
2023-01-04T20:38:46.442Z,99062.78
2023-01-04T20:41:16.996Z,99064.28
2023-01-04T20:43:46.588Z,99060.16
2023-01-04T20:46:16.873Z,99052.44
2023-01-04T20:48:44.740Z,99066.81
2023-01-04T20:51:20.893Z,99061.28
2023-01-04T20:53:49.994Z,99063.63
2023-01-04T20:56:20.637Z,99055.19
2023-01-04T20:58:49.729Z,99066.94
2023-01-04T21:01:19.424Z,99054.31
2023-01-04T21:03:47.548Z,99047.00
2023-01-04T21:06:17.347Z,99048.88
2023-01-04T21:08:45.581Z,99040.31
2023-01-04T21:11:13.919Z,99046.34
2023-01-04T21:13:42.982Z,99048.09
2023-01-04T21:16:11.738Z,99043.59
2023-01-04T21:18:39.352Z,99040.13
2023-01-04T21:21:08.467Z,99039.53
2023-01-04T21:23:38.472Z,99039.16
2023-01-04T21:26:07.964Z,99025.91
2023-01-04T21:28:35.986Z,99034.94
2023-01-04T21:31:19.066Z,99037.06
2023-01-04T21:33:46.789Z,99025.22
2023-01-04T21:36:22.329Z,99030.47
2023-01-04T21:38:51.359Z,99018.72
2023-01-04T21:41:19.330Z,99023.97
2023-01-04T21:43:46.950Z,99029.81
2023-01-04T21:46:15.615Z,99026.69
2023-01-04T21:48:46.825Z,99012.88
2023-01-04T21:51:14.921Z,99023.00
2023-01-04T21:53:42.545Z,99021.25
2023-01-04T21:56:13.761Z,99018.81
2023-01-04T21:58:41.852Z,99022.13
2023-01-04T22:01:14.385Z,99023.22
